sensor_id;sensor_type;location;lat;lon;timestamp;P1;durP1;ratioP1;P2;durP2;ratioP2
64669;SDS011;51080;51.690;5.174;2023-04-03T00:03:07;6.70;;;2.80;;
64669;SDS011;51080;51.690;5.174;2023-04-03T00:08:52;6.20;;;2.70;;
64669;SDS011;51080;51.690;5.174;2023-04-03T00:14:36;4.70;;;2.50;;
64669;SDS011;51080;51.690;5.174;2023-04-03T00:20:21;5.20;;;2.30;;
64669;SDS011;51080;51.690;5.174;2023-04-03T00:26:06;6.50;;;2.70;;
64669;SDS011;51080;51.690;5.174;2023-04-03T00:31:50;8.00;;;2.70;;
64669;SDS011;51080;51.690;5.174;2023-04-03T00:37:35;5.60;;;2.20;;
64669;SDS011;51080;51.690;5.174;2023-04-03T00:43:21;5.80;;;2.40;;
64669;SDS011;51080;51.690;5.174;2023-04-03T00:49:08;4.40;;;2.40;;
64669;SDS011;51080;51.690;5.174;2023-04-03T00:54:54;6.20;;;2.70;;
64669;SDS011;51080;51.690;5.174;2023-04-03T01:00:43;6.10;;;2.50;;
64669;SDS011;51080;51.690;5.174;2023-04-03T01:06:36;6.00;;;2.40;;
64669;SDS011;51080;51.690;5.174;2023-04-03T01:12:23;7.30;;;2.80;;
64669;SDS011;51080;51.690;5.174;2023-04-03T01:18:09;5.10;;;2.20;;
64669;SDS011;51080;51.690;5.174;2023-04-03T01:30:07;4.40;;;2.40;;
64669;SDS011;51080;51.690;5.174;2023-04-03T01:36:27;6.20;;;2.60;;
64669;SDS011;51080;51.690;5.174;2023-04-03T01:42:14;6.80;;;2.80;;
64669;SDS011;51080;51.690;5.174;2023-04-03T01:47:58;6.00;;;2.80;;
64669;SDS011;51080;51.690;5.174;2023-04-03T01:54:13;5.00;;;2.40;;
64669;SDS011;51080;51.690;5.174;2023-04-03T01:59:58;5.30;;;2.70;;
64669;SDS011;51080;51.690;5.174;2023-04-03T02:05:41;9.40;;;2.70;;
64669;SDS011;51080;51.690;5.174;2023-04-03T02:11:56;6.10;;;2.60;;
64669;SDS011;51080;51.690;5.174;2023-04-03T02:17:41;5.30;;;2.60;;
64669;SDS011;51080;51.690;5.174;2023-04-03T02:23:25;6.70;;;2.50;;
64669;SDS011;51080;51.690;5.174;2023-04-03T02:29:40;5.40;;;2.60;;
64669;SDS011;51080;51.690;5.174;2023-04-03T02:35:55;5.60;;;2.80;;
64669;SDS011;51080;51.690;5.174;2023-04-03T02:41:41;5.20;;;2.70;;
64669;SDS011;51080;51.690;5.174;2023-04-03T02:47:26;6.40;;;2.90;;
64669;SDS011;51080;51.690;5.174;2023-04-03T02:53:11;7.90;;;3.20;;
64669;SDS011;51080;51.690;5.174;2023-04-03T02:58:58;6.70;;;2.80;;
64669;SDS011;51080;51.690;5.174;2023-04-03T03:04:42;8.00;;;3.10;;
64669;SDS011;51080;51.690;5.174;2023-04-03T03:10:26;7.00;;;3.00;;
64669;SDS011;51080;51.690;5.174;2023-04-03T03:16:12;6.90;;;2.90;;
64669;SDS011;51080;51.690;5.174;2023-04-03T03:21:57;7.30;;;2.80;;
64669;SDS011;51080;51.690;5.174;2023-04-03T03:27:42;8.00;;;2.80;;
64669;SDS011;51080;51.690;5.174;2023-04-03T03:33:26;6.70;;;2.70;;
64669;SDS011;51080;51.690;5.174;2023-04-03T03:39:12;6.70;;;3.00;;
64669;SDS011;51080;51.690;5.174;2023-04-03T03:44:57;6.90;;;3.00;;
64669;SDS011;51080;51.690;5.174;2023-04-03T03:50:41;6.20;;;2.50;;
64669;SDS011;51080;51.690;5.174;2023-04-03T03:56:26;6.70;;;2.70;;
64669;SDS011;51080;51.690;5.174;2023-04-03T04:02:10;5.10;;;3.00;;
64669;SDS011;51080;51.690;5.174;2023-04-03T04:07:55;5.80;;;3.10;;
64669;SDS011;51080;51.690;5.174;2023-04-03T04:14:10;5.90;;;2.60;;
64669;SDS011;51080;51.690;5.174;2023-04-03T04:19:54;7.80;;;3.00;;
64669;SDS011;51080;51.690;5.174;2023-04-03T04:26:09;6.60;;;3.00;;
64669;SDS011;51080;51.690;5.174;2023-04-03T04:31:54;7.40;;;3.10;;
64669;SDS011;51080;51.690;5.174;2023-04-03T04:37:38;6.20;;;2.90;;
64669;SDS011;51080;51.690;5.174;2023-04-03T04:43:53;5.60;;;2.80;;
64669;SDS011;51080;51.690;5.174;2023-04-03T04:49:38;8.50;;;3.30;;
64669;SDS011;51080;51.690;5.174;2023-04-03T04:55:22;7.50;;;3.20;;
64669;SDS011;51080;51.690;5.174;2023-04-03T05:01:07;7.60;;;3.40;;
64669;SDS011;51080;51.690;5.174;2023-04-03T05:06:52;6.80;;;3.00;;
64669;SDS011;51080;51.690;5.174;2023-04-03T05:13:07;6.80;;;3.00;;
64669;SDS011;51080;51.690;5.174;2023-04-03T05:18:54;8.40;;;3.30;;
64669;SDS011;51080;51.690;5.174;2023-04-03T05:24:39;7.50;;;3.30;;
64669;SDS011;51080;51.690;5.174;2023-04-03T05:30:25;7.80;;;3.30;;
64669;SDS011;51080;51.690;5.174;2023-04-03T05:36:09;6.00;;;3.20;;
64669;SDS011;51080;51.690;5.174;2023-04-03T05:41:54;8.40;;;3.30;;
64669;SDS011;51080;51.690;5.174;2023-04-03T05:47:39;6.10;;;2.80;;
64669;SDS011;51080;51.690;5.174;2023-04-03T05:53:25;7.60;;;2.90;;
64669;SDS011;51080;51.690;5.174;2023-04-03T05:59:12;7.30;;;2.70;;
64669;SDS011;51080;51.690;5.174;2023-04-03T06:04:55;6.80;;;3.00;;
64669;SDS011;51080;51.690;5.174;2023-04-03T06:11:09;8.50;;;3.00;;
64669;SDS011;51080;51.690;5.174;2023-04-03T06:16:54;7.10;;;2.70;;
64669;SDS011;51080;51.690;5.174;2023-04-03T06:23:09;6.70;;;2.50;;
64669;SDS011;51080;51.690;5.174;2023-04-03T06:28:54;7.00;;;2.70;;
64669;SDS011;51080;51.690;5.174;2023-04-03T06:34:38;8.20;;;2.90;;
64669;SDS011;51080;51.690;5.174;2023-04-03T06:40:23;7.50;;;2.90;;
64669;SDS011;51080;51.690;5.174;2023-04-03T06:46:18;8.40;;;2.80;;
64669;SDS011;51080;51.690;5.174;2023-04-03T06:52:04;11.70;;;3.30;;
64669;SDS011;51080;51.690;5.174;2023-04-03T06:58:19;6.20;;;2.40;;
64669;SDS011;51080;51.690;5.174;2023-04-03T07:04:04;6.30;;;2.80;;
64669;SDS011;51080;51.690;5.174;2023-04-03T07:09:49;6.80;;;2.50;;
64669;SDS011;51080;51.690;5.174;2023-04-03T07:15:34;6.10;;;2.70;;
64669;SDS011;51080;51.690;5.174;2023-04-03T07:21:19;9.10;;;2.80;;
64669;SDS011;51080;51.690;5.174;2023-04-03T07:27:03;6.60;;;3.00;;
64669;SDS011;51080;51.690;5.174;2023-04-03T07:32:47;7.40;;;3.00;;
64669;SDS011;51080;51.690;5.174;2023-04-03T07:38:32;7.50;;;3.00;;
64669;SDS011;51080;51.690;5.174;2023-04-03T07:44:17;8.50;;;3.10;;
64669;SDS011;51080;51.690;5.174;2023-04-03T07:50:32;8.70;;;3.10;;
64669;SDS011;51080;51.690;5.174;2023-04-03T07:56:17;6.90;;;3.30;;
64669;SDS011;51080;51.690;5.174;2023-04-03T08:02:02;6.30;;;2.70;;
64669;SDS011;51080;51.690;5.174;2023-04-03T08:07:47;8.60;;;3.20;;
64669;SDS011;51080;51.690;5.174;2023-04-03T08:13:33;6.50;;;2.50;;
64669;SDS011;51080;51.690;5.174;2023-04-03T08:19:17;6.00;;;2.60;;
64669;SDS011;51080;51.690;5.174;2023-04-03T08:25:01;5.70;;;2.00;;
64669;SDS011;51080;51.690;5.174;2023-04-03T08:30:46;5.90;;;1.80;;
64669;SDS011;51080;51.690;5.174;2023-04-03T08:36:31;5.40;;;1.80;;
64669;SDS011;51080;51.690;5.174;2023-04-03T08:48:31;6.70;;;2.00;;
64669;SDS011;51080;51.690;5.174;2023-04-03T08:54:23;3.90;;;1.50;;
64669;SDS011;51080;51.690;5.174;2023-04-03T09:00:17;5.10;;;1.60;;
64669;SDS011;51080;51.690;5.174;2023-04-03T09:06:08;2.90;;;1.30;;
64669;SDS011;51080;51.690;5.174;2023-04-03T09:12:39;4.70;;;1.20;;
64669;SDS011;51080;51.690;5.174;2023-04-03T09:18:32;5.60;;;1.30;;
64669;SDS011;51080;51.690;5.174;2023-04-03T09:24:25;4.20;;;1.50;;
64669;SDS011;51080;51.690;5.174;2023-04-03T09:30:17;2.30;;;1.20;;
64669;SDS011;51080;51.690;5.174;2023-04-03T09:36:05;2.70;;;1.20;;
64669;SDS011;51080;51.690;5.174;2023-04-03T09:42:03;2.70;;;1.10;;
64669;SDS011;51080;51.690;5.174;2023-04-03T09:48:12;2.20;;;1.00;;
64669;SDS011;51080;51.690;5.174;2023-04-03T09:54:23;2.90;;;1.30;;
64669;SDS011;51080;51.690;5.174;2023-04-03T10:00:10;4.00;;;1.20;;
64669;SDS011;51080;51.690;5.174;2023-04-03T10:06:03;2.70;;;1.00;;
64669;SDS011;51080;51.690;5.174;2023-04-03T10:17:57;1.50;;;0.80;;
64669;SDS011;51080;51.690;5.174;2023-04-03T10:23:53;2.70;;;1.00;;
64669;SDS011;51080;51.690;5.174;2023-04-03T10:48:11;2.30;;;1.10;;
64669;SDS011;51080;51.690;5.174;2023-04-03T10:54:05;3.60;;;1.00;;
64669;SDS011;51080;51.690;5.174;2023-04-03T11:00:05;2.70;;;0.80;;
64669;SDS011;51080;51.690;5.174;2023-04-03T11:05:54;2.50;;;0.70;;
64669;SDS011;51080;51.690;5.174;2023-04-03T11:11:42;1.10;;;0.60;;
64669;SDS011;51080;51.690;5.174;2023-04-03T11:17:33;2.30;;;0.70;;
64669;SDS011;51080;51.690;5.174;2023-04-03T11:23:28;2.50;;;0.70;;
64669;SDS011;51080;51.690;5.174;2023-04-03T11:29:21;2.10;;;0.70;;
64669;SDS011;51080;51.690;5.174;2023-04-03T11:35:08;1.40;;;0.60;;
64669;SDS011;51080;51.690;5.174;2023-04-03T11:40:55;3.10;;;0.80;;
64669;SDS011;51080;51.690;5.174;2023-04-03T11:46:52;1.20;;;0.70;;
64669;SDS011;51080;51.690;5.174;2023-04-03T11:58:34;1.70;;;0.80;;
64669;SDS011;51080;51.690;5.174;2023-04-03T12:04:22;2.10;;;0.80;;
64669;SDS011;51080;51.690;5.174;2023-04-03T12:10:14;2.10;;;0.80;;
64669;SDS011;51080;51.690;5.174;2023-04-03T12:16:02;1.60;;;0.80;;
64669;SDS011;51080;51.690;5.174;2023-04-03T12:27:45;2.20;;;0.90;;
64669;SDS011;51080;51.690;5.174;2023-04-03T12:33:51;6.10;;;1.30;;
64669;SDS011;51080;51.690;5.174;2023-04-03T12:51:47;3.10;;;1.10;;
64669;SDS011;51080;51.690;5.174;2023-04-03T12:57:32;1.70;;;0.90;;
64669;SDS011;51080;51.690;5.174;2023-04-03T13:03:24;3.90;;;1.30;;
64669;SDS011;51080;51.690;5.174;2023-04-03T13:09:20;2.80;;;1.10;;
64669;SDS011;51080;51.690;5.174;2023-04-03T13:15:13;3.20;;;1.20;;
64669;SDS011;51080;51.690;5.174;2023-04-03T13:21:04;3.70;;;1.10;;
64669;SDS011;51080;51.690;5.174;2023-04-03T13:26:52;2.00;;;1.10;;
64669;SDS011;51080;51.690;5.174;2023-04-03T13:32:37;3.10;;;1.40;;
64669;SDS011;51080;51.690;5.174;2023-04-03T13:38:22;4.20;;;1.40;;
64669;SDS011;51080;51.690;5.174;2023-04-03T13:50:20;3.60;;;1.40;;
64669;SDS011;51080;51.690;5.174;2023-04-03T13:56:07;3.70;;;1.40;;
64669;SDS011;51080;51.690;5.174;2023-04-03T14:02:31;3.40;;;1.70;;
64669;SDS011;51080;51.690;5.174;2023-04-03T14:08:17;3.60;;;1.60;;
64669;SDS011;51080;51.690;5.174;2023-04-03T14:14:05;3.90;;;1.40;;
64669;SDS011;51080;51.690;5.174;2023-04-03T14:19:54;3.40;;;1.70;;
64669;SDS011;51080;51.690;5.174;2023-04-03T14:25:39;4.00;;;1.50;;
64669;SDS011;51080;51.690;5.174;2023-04-03T14:31:24;4.20;;;1.60;;
64669;SDS011;51080;51.690;5.174;2023-04-03T14:37:15;4.20;;;1.50;;
64669;SDS011;51080;51.690;5.174;2023-04-03T14:43:00;4.80;;;1.50;;
64669;SDS011;51080;51.690;5.174;2023-04-03T14:48:44;2.80;;;1.30;;
64669;SDS011;51080;51.690;5.174;2023-04-03T14:54:29;6.00;;;1.80;;
64669;SDS011;51080;51.690;5.174;2023-04-03T15:00:15;4.40;;;1.50;;
64669;SDS011;51080;51.690;5.174;2023-04-03T15:05:59;4.00;;;1.60;;
64669;SDS011;51080;51.690;5.174;2023-04-03T15:12:13;3.20;;;1.40;;
64669;SDS011;51080;51.690;5.174;2023-04-03T15:17:58;3.50;;;1.50;;
64669;SDS011;51080;51.690;5.174;2023-04-03T15:23:42;4.30;;;1.60;;
64669;SDS011;51080;51.690;5.174;2023-04-03T15:29:26;4.50;;;1.90;;
64669;SDS011;51080;51.690;5.174;2023-04-03T15:35:11;3.80;;;1.80;;
64669;SDS011;51080;51.690;5.174;2023-04-03T15:40:56;3.30;;;1.40;;
64669;SDS011;51080;51.690;5.174;2023-04-03T15:46:41;6.00;;;1.70;;
64669;SDS011;51080;51.690;5.174;2023-04-03T15:52:26;3.70;;;1.30;;
64669;SDS011;51080;51.690;5.174;2023-04-03T15:58:10;4.10;;;1.40;;
64669;SDS011;51080;51.690;5.174;2023-04-03T16:03:53;3.80;;;1.70;;
64669;SDS011;51080;51.690;5.174;2023-04-03T16:09:37;4.70;;;1.70;;
64669;SDS011;51080;51.690;5.174;2023-04-03T16:15:20;4.50;;;1.50;;
64669;SDS011;51080;51.690;5.174;2023-04-03T16:21:05;5.60;;;1.90;;
64669;SDS011;51080;51.690;5.174;2023-04-03T16:26:50;4.50;;;1.60;;
64669;SDS011;51080;51.690;5.174;2023-04-03T16:32:34;5.50;;;1.80;;
64669;SDS011;51080;51.690;5.174;2023-04-03T16:38:20;5.00;;;1.70;;
64669;SDS011;51080;51.690;5.174;2023-04-03T16:44:03;5.50;;;1.80;;
64669;SDS011;51080;51.690;5.174;2023-04-03T16:49:47;5.10;;;1.60;;
64669;SDS011;51080;51.690;5.174;2023-04-03T16:55:31;3.80;;;1.80;;
64669;SDS011;51080;51.690;5.174;2023-04-03T17:01:16;6.80;;;1.90;;
64669;SDS011;51080;51.690;5.174;2023-04-03T17:07:00;4.50;;;1.80;;
64669;SDS011;51080;51.690;5.174;2023-04-03T17:12:44;3.60;;;1.60;;
64669;SDS011;51080;51.690;5.174;2023-04-03T17:18:31;5.10;;;2.00;;
64669;SDS011;51080;51.690;5.174;2023-04-03T17:24:23;5.50;;;1.90;;
64669;SDS011;51080;51.690;5.174;2023-04-03T17:30:11;4.60;;;1.80;;
64669;SDS011;51080;51.690;5.174;2023-04-03T17:35:56;4.70;;;1.80;;
64669;SDS011;51080;51.690;5.174;2023-04-03T17:41:41;6.10;;;1.90;;
64669;SDS011;51080;51.690;5.174;2023-04-03T17:47:24;4.20;;;1.80;;
64669;SDS011;51080;51.690;5.174;2023-04-03T17:53:08;5.70;;;2.10;;
64669;SDS011;51080;51.690;5.174;2023-04-03T17:59:22;5.50;;;1.90;;
64669;SDS011;51080;51.690;5.174;2023-04-03T18:05:05;4.10;;;2.10;;
64669;SDS011;51080;51.690;5.174;2023-04-03T18:10:50;6.20;;;2.40;;
64669;SDS011;51080;51.690;5.174;2023-04-03T18:16:34;6.10;;;2.30;;
64669;SDS011;51080;51.690;5.174;2023-04-03T18:22:19;6.80;;;2.80;;
64669;SDS011;51080;51.690;5.174;2023-04-03T18:28:05;7.40;;;2.20;;
64669;SDS011;51080;51.690;5.174;2023-04-03T18:33:49;6.30;;;2.50;;
64669;SDS011;51080;51.690;5.174;2023-04-03T18:39:33;6.50;;;2.60;;
64669;SDS011;51080;51.690;5.174;2023-04-03T18:45:48;6.20;;;2.20;;
64669;SDS011;51080;51.690;5.174;2023-04-03T18:51:32;6.70;;;2.80;;
64669;SDS011;51080;51.690;5.174;2023-04-03T18:57:17;5.10;;;2.90;;
64669;SDS011;51080;51.690;5.174;2023-04-03T19:03:03;5.60;;;2.20;;
64669;SDS011;51080;51.690;5.174;2023-04-03T19:08:48;8.10;;;2.70;;
64669;SDS011;51080;51.690;5.174;2023-04-03T19:14:34;10.10;;;2.50;;
64669;SDS011;51080;51.690;5.174;2023-04-03T19:20:19;5.40;;;2.40;;
64669;SDS011;51080;51.690;5.174;2023-04-03T19:26:06;5.00;;;2.10;;
64669;SDS011;51080;51.690;5.174;2023-04-03T19:31:52;6.30;;;2.20;;
64669;SDS011;51080;51.690;5.174;2023-04-03T19:38:07;5.50;;;2.40;;
64669;SDS011;51080;51.690;5.174;2023-04-03T19:43:52;6.40;;;2.50;;
64669;SDS011;51080;51.690;5.174;2023-04-03T19:50:08;7.10;;;2.30;;
64669;SDS011;51080;51.690;5.174;2023-04-03T19:55:55;5.60;;;2.30;;
64669;SDS011;51080;51.690;5.174;2023-04-03T20:02:10;11.50;;;2.50;;
64669;SDS011;51080;51.690;5.174;2023-04-03T20:07:54;5.20;;;2.40;;
64669;SDS011;51080;51.690;5.174;2023-04-03T20:13:39;6.40;;;2.10;;
64669;SDS011;51080;51.690;5.174;2023-04-03T20:19:24;7.00;;;2.20;;
64669;SDS011;51080;51.690;5.174;2023-04-03T20:25:10;6.00;;;2.10;;
64669;SDS011;51080;51.690;5.174;2023-04-03T20:30:55;5.30;;;2.10;;
64669;SDS011;51080;51.690;5.174;2023-04-03T20:36:40;6.60;;;2.20;;
64669;SDS011;51080;51.690;5.174;2023-04-03T20:42:25;7.20;;;2.30;;
64669;SDS011;51080;51.690;5.174;2023-04-03T20:48:10;6.20;;;2.20;;
64669;SDS011;51080;51.690;5.174;2023-04-03T20:53:55;5.50;;;2.00;;
64669;SDS011;51080;51.690;5.174;2023-04-03T20:59:41;7.00;;;2.70;;
64669;SDS011;51080;51.690;5.174;2023-04-03T21:05:26;8.50;;;2.70;;
64669;SDS011;51080;51.690;5.174;2023-04-03T21:23:46;6.10;;;2.40;;
64669;SDS011;51080;51.690;5.174;2023-04-03T21:29:31;7.10;;;2.90;;
64669;SDS011;51080;51.690;5.174;2023-04-03T21:35:16;6.90;;;2.30;;
64669;SDS011;51080;51.690;5.174;2023-04-03T21:41:00;6.60;;;2.70;;
64669;SDS011;51080;51.690;5.174;2023-04-03T21:47:16;7.30;;;2.40;;
64669;SDS011;51080;51.690;5.174;2023-04-03T21:53:02;5.60;;;2.40;;
64669;SDS011;51080;51.690;5.174;2023-04-03T21:58:46;6.20;;;2.60;;
64669;SDS011;51080;51.690;5.174;2023-04-03T22:04:29;6.20;;;2.50;;
64669;SDS011;51080;51.690;5.174;2023-04-03T22:10:14;4.50;;;1.90;;
64669;SDS011;51080;51.690;5.174;2023-04-03T22:15:58;5.00;;;2.30;;
64669;SDS011;51080;51.690;5.174;2023-04-03T22:21:42;6.60;;;2.30;;
64669;SDS011;51080;51.690;5.174;2023-04-03T22:27:56;5.70;;;2.20;;
64669;SDS011;51080;51.690;5.174;2023-04-03T22:33:41;6.90;;;2.40;;
64669;SDS011;51080;51.690;5.174;2023-04-03T22:39:26;5.90;;;2.50;;
64669;SDS011;51080;51.690;5.174;2023-04-03T22:45:10;6.30;;;2.50;;
64669;SDS011;51080;51.690;5.174;2023-04-03T22:50:54;6.00;;;2.40;;
64669;SDS011;51080;51.690;5.174;2023-04-03T22:57:08;4.20;;;1.90;;
64669;SDS011;51080;51.690;5.174;2023-04-03T23:02:52;6.50;;;2.40;;
64669;SDS011;51080;51.690;5.174;2023-04-03T23:08:36;8.00;;;2.60;;
64669;SDS011;51080;51.690;5.174;2023-04-03T23:14:20;7.10;;;3.20;;
64669;SDS011;51080;51.690;5.174;2023-04-03T23:20:04;7.90;;;3.40;;
64669;SDS011;51080;51.690;5.174;2023-04-03T23:25:55;6.90;;;3.00;;
64669;SDS011;51080;51.690;5.174;2023-04-03T23:31:41;7.60;;;2.60;;
64669;SDS011;51080;51.690;5.174;2023-04-03T23:37:24;7.30;;;3.10;;
64669;SDS011;51080;51.690;5.174;2023-04-03T23:43:07;5.10;;;2.40;;
64669;SDS011;51080;51.690;5.174;2023-04-03T23:48:52;7.10;;;2.80;;
64669;SDS011;51080;51.690;5.174;2023-04-03T23:54:36;6.60;;;3.20;;
